Time;durP1;ratioP1;P1;durP2;ratioP2;P2;SDS_P1;SDS_P2;PMS_P1;PMS_P2;Temp;Humidity;BMP_temperature;BMP_pressure;BME280_temperature;BME280_humidity;BME280_pressure;Samples;Min_cycle;Max_cycle;Signal;HPM_P1;HPM_P2
2024/01/31 00:00:06;;;;;;;17.53;13.10;;;;;;;-5.19;63.98;95076.91;523771;28;886;-63
2024/01/31 00:00:21;;;;;;;20.30;14.05;;;;;;;-5.19;64.20;95076.91;523794;28;878;-64
2024/01/31 00:00:38;;;;;;;20.10;13.80;;;;;;;-5.18;64.16;95071.13;523717;28;855;-64
2024/01/31 00:00:53;;;;;;;19.08;12.85;;;;;;;-5.21;64.17;95073.88;523781;28;891;-64
2024/01/31 00:01:09;;;;;;;19.73;12.57;;;;;;;-5.22;63.77;95073.13;523741;28;781;-64
2024/01/31 00:01:24;;;;;;;20.40;13.45;;;;;;;-5.23;63.77;95076.22;523856;28;804;-64
2024/01/31 00:01:40;;;;;;;20.40;14.50;;;;;;;-5.22;63.81;95072.38;523709;28;1089;-63
2024/01/31 00:01:55;;;;;;;22.30;14.80;;;;;;;-5.22;63.93;95077.75;523523;28;820;-64
2024/01/31 00:02:11;;;;;;;23.77;15.37;;;;;;;-5.24;63.82;95070.06;523512;28;772;-64
2024/01/31 00:02:26;;;;;;;22.35;15.23;;;;;;;-5.23;63.76;95073.53;523628;28;753;-64
2024/01/31 00:02:42;;;;;;;20.80;15.27;;;;;;;-5.26;64.70;95077.03;523567;28;764;-64
2024/01/31 00:02:57;;;;;;;27.70;17.40;;;;;;;-5.25;64.82;95073.94;523640;28;827;-64
2024/01/31 00:03:12;;;;;;;33.17;18.83;;;;;;;-5.26;64.60;95077.78;523439;28;1914;-64
2024/01/31 00:03:28;;;;;;;31.98;19.88;;;;;;;-5.25;64.85;95078.56;523633;28;796;-64
2024/01/31 00:03:44;;;;;;;33.07;21.00;;;;;;;-5.24;64.31;95078.13;523781;28;839;-64
2024/01/31 00:04:00;;;;;;;34.65;20.90;;;;;;;-5.22;64.56;95065.06;525275;28;1093;-64
2024/01/31 00:04:15;;;;;;;36.97;21.25;;;;;;;-5.19;63.95;95066.91;525857;28;796;-63
2024/01/31 00:04:31;;;;;;;38.28;21.27;;;;;;;-5.17;63.93;95071.88;525877;28;827;-64
2024/01/31 00:04:46;;;;;;;38.33;21.23;;;;;;;-5.16;64.18;95066.09;524811;28;1171;-63
2024/01/31 00:05:02;;;;;;;39.42;22.75;;;;;;;-5.14;63.92;95065.69;523682;28;848;-64
2024/01/31 00:05:18;;;;;;;41.78;25.85;;;;;;;-5.12;63.57;95066.03;523754;28;1017;-64
2024/01/31 00:05:33;;;;;;;43.57;27.40;;;;;;;-5.13;63.15;95067.22;523699;28;824;-63
2024/01/31 00:05:49;;;;;;;41.37;24.93;;;;;;;-5.15;63.63;95066.88;523640;28;1402;-63
2024/01/31 00:06:04;;;;;;;36.93;22.30;;;;;;;-5.16;63.31;95076.09;523666;28;951;-64
2024/01/31 00:06:19;;;;;;;36.70;22.20;;;;;;;-5.19;63.69;95077.69;523666;28;812;-64
2024/01/31 00:06:35;;;;;;;35.30;22.37;;;;;;;-5.19;63.36;95064.22;523792;28;863;-63
2024/01/31 00:06:51;;;;;;;35.30;22.38;;;;;;;-5.30;63.59;95055.53;523807;28;784;-63
2024/01/31 00:07:06;;;;;;;35.93;22.70;;;;;;;-5.41;63.59;95030.72;523721;28;862;-63
2024/01/31 00:07:21;;;;;;;32.67;20.45;;;;;;;-5.19;63.30;95064.22;523803;28;823;-63
2024/01/31 00:07:37;;;;;;;24.33;15.53;;;;;;;-5.21;63.50;95068.50;523742;28;843;-63
2024/01/31 00:07:52;;;;;;;19.35;13.68;;;;;;;-5.23;63.48;95076.97;523725;28;848;-63
2024/01/31 00:08:08;;;;;;;19.77;13.40;;;;;;;-5.30;63.93;95070.94;523790;28;831;-63
2024/01/31 00:08:23;;;;;;;22.98;13.38;;;;;;;-5.33;63.60;95069.06;523734;28;865;-63
2024/01/31 00:08:39;;;;;;;22.60;12.90;;;;;;;-5.35;64.45;95071.41;523860;28;756;-64
2024/01/31 00:08:56;;;;;;;19.10;13.37;;;;;;;-5.38;64.21;95071.06;523727;28;760;-64
2024/01/31 00:09:12;;;;;;;20.80;13.93;;;;;;;-5.37;64.01;95063.72;523743;28;804;-64
2024/01/31 00:09:27;;;;;;;20.98;14.43;;;;;;;-5.37;64.40;95077.19;523864;28;765;-63
2024/01/31 00:09:43;;;;;;;25.23;16.70;;;;;;;-5.35;64.14;95071.41;523771;28;760;-64
2024/01/31 00:09:58;;;;;;;28.25;17.17;;;;;;;-5.38;64.25;95062.97;523736;28;800;-64
2024/01/31 00:10:14;;;;;;;25.20;16.00;;;;;;;-5.35;64.33;95071.41;523754;28;835;-64
2024/01/31 00:10:29;;;;;;;21.27;14.40;;;;;;;-5.37;64.30;95071.78;523717;28;808;-64
2024/01/31 00:10:44;;;;;;;20.83;12.63;;;;;;;-5.43;64.32;95066.13;523844;28;737;-64
2024/01/31 00:11:00;;;;;;;19.53;11.43;;;;;;;-5.71;64.41;95036.16;523794;28;776;-63
2024/01/31 00:11:15;;;;;;;16.17;10.65;;;;;;;-5.51;64.48;95072.78;523672;28;1007;-64
2024/01/31 00:11:31;;;;;;;12.83;9.77;;;;;;;-5.55;63.88;95066.69;523790;28;895;-63
2024/01/31 00:11:46;;;;;;;11.73;8.60;;;;;;;-5.59;64.42;95067.91;523775;28;936;-64
2024/01/31 00:12:02;;;;;;;11.97;8.40;;;;;;;-5.72;64.32;95077.69;523697;28;788;-64
2024/01/31 00:12:17;;;;;;;12.07;8.65;;;;;;;-5.83;64.35;95069.00;523796;28;898;-64
2024/01/31 00:12:33;;;;;;;13.47;8.93;;;;;;;-5.92;64.86;95072.22;523679;28;864;-63
2024/01/31 00:12:48;;;;;;;14.30;9.37;;;;;;;-5.98;65.15;95070.38;523793;28;760;-64
2024/01/31 00:13:04;;;;;;;15.90;10.52;;;;;;;-5.99;64.63;95066.91;523710;28;825;-64
2024/01/31 00:13:19;;;;;;;18.90;12.10;;;;;;;-6.00;65.02;95078.09;523764;28;840;-64
2024/01/31 00:13:35;;;;;;;20.92;13.95;;;;;;;-5.98;64.85;95078.44;523776;28;1128;-64
2024/01/31 00:13:51;;;;;;;24.83;16.70;;;;;;;-6.00;64.98;95067.34;523727;28;811;-63
2024/01/31 00:14:07;;;;;;;24.33;16.77;;;;;;;-5.92;65.07;95069.53;523751;28;832;-64
2024/01/31 00:14:23;;;;;;;21.45;15.18;;;;;;;-5.88;64.81;95080.22;523807;28;896;-64
2024/01/31 00:14:38;;;;;;;22.27;15.25;;;;;;;-5.84;65.12;95076.34;523745;28;840;-64
2024/01/31 00:14:54;;;;;;;21.00;14.60;;;;;;;-5.80;65.01;95076.25;523720;28;847;-63
2024/01/31 00:15:09;;;;;;;19.20;13.27;;;;;;;-5.77;65.57;95068.16;523781;28;835;-63
2024/01/31 00:15:25;;;;;;;17.35;12.52;;;;;;;-5.76;65.38;95072.34;523740;28;748;-64
2024/01/31 00:15:40;;;;;;;17.27;12.60;;;;;;;-5.73;65.11;95073.47;523853;28;828;-64
2024/01/31 00:15:56;;;;;;;17.40;12.48;;;;;;;-5.74;65.00;95071.97;523655;28;976;-64
2024/01/31 00:16:13;;;;;;;18.47;12.73;;;;;;;-5.92;64.42;95041.88;523694;28;840;-64
2024/01/31 00:16:29;;;;;;;20.67;13.27;;;;;;;-5.63;64.84;95075.28;523796;28;832;-64
2024/01/31 00:16:44;;;;;;;20.37;13.00;;;;;;;-5.60;64.21;95074.44;523811;28;804;-63
2024/01/31 00:17:00;;;;;;;18.90;12.55;;;;;;;-5.57;64.70;95073.66;523728;28;816;-63
2024/01/31 00:17:15;;;;;;;18.20;12.77;;;;;;;-5.54;64.07;95075.50;523741;28;804;-64
2024/01/31 00:17:31;;;;;;;20.25;14.02;;;;;;;-5.52;63.86;95073.94;523833;28;752;-64
2024/01/31 00:17:46;;;;;;;21.33;14.97;;;;;;;-5.50;63.79;95078.94;523760;28;835;-63
2024/01/31 00:18:02;;;;;;;19.13;13.77;;;;;;;-5.53;63.67;95069.75;523770;28;803;-64
2024/01/31 00:18:17;;;;;;;19.87;13.47;;;;;;;-5.47;63.98;95076.19;523785;28;839;-64
2024/01/31 00:18:33;;;;;;;22.90;14.05;;;;;;;-5.47;63.62;95067.34;523752;28;741;-64
2024/01/31 00:18:50;;;;;;;23.10;14.03;;;;;;;-5.48;63.73;95071.94;523793;28;827;-63
2024/01/31 00:19:05;;;;;;;21.27;14.30;;;;;;;-5.51;63.80;95072.78;523699;28;909;-63
2024/01/31 00:19:21;;;;;;;20.75;14.48;;;;;;;-5.52;63.78;95065.88;523802;28;867;-64
2024/01/31 00:19:36;;;;;;;21.98;14.70;;;;;;;-5.51;63.77;95072.00;523764;28;848;-63
2024/01/31 00:19:52;;;;;;;19.60;13.77;;;;;;;-5.49;63.71;95075.06;523769;28;752;-64
2024/01/31 00:20:08;;;;;;;20.05;13.80;;;;;;;-5.49;63.77;95075.81;523641;28;737;-64
2024/01/31 00:20:24;;;;;;;20.37;14.10;;;;;;;-5.46;63.37;95072.31;523721;28;799;-64
2024/01/31 00:20:39;;;;;;;20.90;14.38;;;;;;;-5.45;63.77;95071.16;523785;28;851;-64
2024/01/31 00:20:55;;;;;;;20.25;14.13;;;;;;;-5.43;63.32;95070.75;523767;28;733;-64
2024/01/31 00:21:10;;;;;;;20.90;14.63;;;;;;;-5.64;63.70;95047.59;523787;28;760;-64
2024/01/31 00:21:25;;;;;;;22.63;15.70;;;;;;;-5.53;63.79;95074.34;523610;28;840;-64
2024/01/31 00:21:42;;;;;;;21.83;15.50;;;;;;;-5.55;64.14;95074.75;523848;28;847;-63
2024/01/31 00:21:57;;;;;;;21.27;14.48;;;;;;;-5.57;63.73;95079.78;523742;28;887;-64
2024/01/31 00:22:12;;;;;;;19.48;13.27;;;;;;;-5.59;64.09;95070.59;523696;28;820;-64
2024/01/31 00:22:28;;;;;;;17.67;12.30;;;;;;;-5.62;63.96;95076.78;523804;28;820;-64
2024/01/31 00:22:43;;;;;;;17.48;12.27;;;;;;;-5.63;63.89;95078.69;523716;28;923;-64
2024/01/31 00:22:59;;;;;;;17.20;12.07;;;;;;;-5.64;64.13;95074.50;523660;28;888;-63
2024/01/31 00:23:14;;;;;;;17.13;11.88;;;;;;;-5.62;64.11;95076.78;523671;28;1980;-64
2024/01/31 00:23:30;;;;;;;19.23;12.80;;;;;;;-5.61;64.41;95079.06;523818;28;847;-64
2024/01/31 00:23:46;;;;;;;19.38;13.52;;;;;;;-5.59;64.16;95075.97;523712;28;925;-63
2024/01/31 00:24:01;;;;;;;20.13;14.00;;;;;;;-5.57;63.46;95079.03;523775;28;886;-64
2024/01/31 00:24:17;;;;;;;20.07;14.50;;;;;;;-5.55;63.91;95076.69;523730;28;829;-64
2024/01/31 00:24:32;;;;;;;20.42;14.73;;;;;;;-5.55;63.75;95082.06;523752;28;851;-64
2024/01/31 00:24:47;;;;;;;22.77;15.23;;;;;;;-5.54;63.80;95078.19;523806;28;788;-64
2024/01/31 00:25:03;;;;;;;21.58;14.63;;;;;;;-5.58;63.59;95080.19;523698;28;860;-63
2024/01/31 00:25:19;;;;;;;19.25;13.82;;;;;;;-5.63;63.68;95075.28;523761;28;895;-63
2024/01/31 00:25:34;;;;;;;22.97;14.67;;;;;;;-5.64;63.93;95077.19;523716;28;884;-64
2024/01/31 00:25:50;;;;;;;24.03;14.83;;;;;;;-5.64;64.00;95079.13;523783;28;823;-63
2024/01/31 00:26:06;;;;;;;21.40;14.63;;;;;;;-5.63;63.68;95076.00;523767;28;840;-63
2024/01/31 00:26:21;;;;;;;21.60;14.80;;;;;;;-5.65;64.18;95072.22;523658;28;803;-63
2024/01/31 00:26:37;;;;;;;23.15;15.05;;;;;;;-5.67;64.38;95080.69;523714;28;752;-64
2024/01/31 00:26:52;;;;;;;21.57;14.47;;;;;;;-5.68;63.82;95075.72;523722;28;800;-63
2024/01/31 00:27:08;;;;;;;20.08;13.68;;;;;;;-5.68;64.34;95075.72;523694;28;808;-64
2024/01/31 00:27:23;;;;;;;19.43;13.40;;;;;;;-5.70;64.32;95073.44;523803;28;772;-63
2024/01/31 00:27:39;;;;;;;19.23;13.50;;;;;;;-5.69;64.10;95082.25;523802;28;801;-64
2024/01/31 00:27:54;;;;;;;20.03;14.27;;;;;;;-5.69;64.29;95080.31;523729;28;827;-64
2024/01/31 00:28:10;;;;;;;19.57;14.20;;;;;;;-5.71;64.22;95079.97;523744;28;844;-64
2024/01/31 00:28:25;;;;;;;18.57;13.30;;;;;;;-5.74;64.50;95078.06;523642;28;899;-64
2024/01/31 00:28:40;;;;;;;16.97;12.80;;;;;;;-5.82;64.61;95067.81;523871;28;780;-64
2024/01/31 00:28:56;;;;;;;17.75;13.38;;;;;;;-5.90;64.56;95077.19;523720;28;748;-64
2024/01/31 00:29:11;;;;;;;21.60;14.60;;;;;;;-5.96;64.95;95078.81;523697;28;827;-64
2024/01/31 00:29:27;;;;;;;23.23;14.80;;;;;;;-6.04;65.13;95080.81;523782;28;1129;-64
2024/01/31 00:29:42;;;;;;;20.30;13.93;;;;;;;-6.08;65.46;95082.00;523648;28;899;-63
2024/01/31 00:29:58;;;;;;;18.00;13.10;;;;;;;-6.11;65.47;95078.22;523737;28;744;-64
2024/01/31 00:30:14;;;;;;;17.07;12.90;;;;;;;-6.13;65.25;95074.41;523666;28;879;-64
2024/01/31 00:30:29;;;;;;;17.55;13.30;;;;;;;-6.11;65.66;95077.44;523781;28;776;-64
2024/01/31 00:30:45;;;;;;;18.23;13.20;;;;;;;-6.11;65.28;95077.44;523781;28;867;-64
2024/01/31 00:31:00;;;;;;;17.47;13.10;;;;;;;-6.08;65.37;95073.94;523762;28;886;-64
2024/01/31 00:31:16;;;;;;;16.70;12.55;;;;;;;-6.07;65.89;95078.16;523648;28;775;-64
2024/01/31 00:31:33;;;;;;;16.00;11.82;;;;;;;-6.06;65.31;95074.31;523730;28;819;-63
2024/01/31 00:31:49;;;;;;;17.35;12.40;;;;;;;-6.03;65.56;95078.88;523746;28;934;-63
2024/01/31 00:32:05;;;;;;;18.65;13.25;;;;;;;-6.01;65.55;95080.00;523680;28;800;-64
2024/01/31 00:32:20;;;;;;;18.50;13.52;;;;;;;-6.01;65.53;95081.94;523769;28;899;-64
2024/01/31 00:32:36;;;;;;;19.25;12.90;;;;;;;-6.01;65.52;95080.00;523703;28;784;-63
2024/01/31 00:32:51;;;;;;;18.70;12.60;;;;;;;-6.03;65.22;95078.88;523809;28;827;-63
2024/01/31 00:33:06;;;;;;;17.00;12.68;;;;;;;-5.95;65.41;95080.31;523732;28;784;-63
2024/01/31 00:33:23;;;;;;;15.73;11.90;;;;;;;-5.93;65.03;95078.00;523772;28;839;-64
2024/01/31 00:33:39;;;;;;;15.30;10.93;;;;;;;-5.95;64.96;95070.31;523791;28;969;-63
2024/01/31 00:33:54;;;;;;;15.10;10.65;;;;;;;-5.86;64.86;95077.91;523665;28;800;-63
2024/01/31 00:34:10;;;;;;;12.97;10.17;;;;;;;-5.83;64.92;95082.44;523748;28;835;-64
2024/01/31 00:34:25;;;;;;;13.27;9.70;;;;;;;-5.80;64.91;95081.63;523747;28;745;-64
2024/01/31 00:34:41;;;;;;;14.88;9.70;;;;;;;-5.79;64.95;95083.16;523807;28;800;-64
2024/01/31 00:34:56;;;;;;;14.18;9.23;;;;;;;-5.79;65.27;95085.84;523760;28;784;-64
2024/01/31 00:35:12;;;;;;;11.83;8.17;;;;;;;-5.81;64.95;95078.19;523639;28;905;-64
2024/01/31 00:35:27;;;;;;;10.85;7.85;;;;;;;-5.80;64.61;95079.69;523684;28;749;-63
2024/01/31 00:35:43;;;;;;;13.37;8.30;;;;;;;-5.78;64.93;95076.63;523769;28;983;-64
2024/01/31 00:35:58;;;;;;;15.00;8.52;;;;;;;-5.77;64.85;95073.53;523781;28;820;-64
2024/01/31 00:36:15;;;;;;;14.20;8.50;;;;;;;-5.77;64.43;95083.50;523679;28;1048;-64
2024/01/31 00:36:30;;;;;;;11.57;7.55;;;;;;;-5.76;63.95;95079.69;523741;28;792;-64
2024/01/31 00:36:46;;;;;;;10.87;7.13;;;;;;;-5.77;64.33;95080.81;523701;28;780;-64
2024/01/31 00:37:01;;;;;;;11.13;6.82;;;;;;;-5.73;64.39;95078.84;523697;28;744;-64
2024/01/31 00:37:17;;;;;;;9.93;6.43;;;;;;;-5.72;64.21;95077.69;523746;28;796;-64
2024/01/31 00:37:32;;;;;;;9.48;6.32;;;;;;;-5.74;63.93;95082.72;523690;28;917;-64
2024/01/31 00:37:48;;;;;;;8.20;5.90;;;;;;;-5.74;64.18;95077.34;523766;28;836;-64
2024/01/31 00:38:03;;;;;;;6.77;5.13;;;;;;;-5.72;64.18;95078.47;523661;28;797;-64
2024/01/31 00:38:19;;;;;;;6.70;4.55;;;;;;;-5.74;64.03;95074.66;524110;28;863;-63
2024/01/31 00:38:34;;;;;;;8.03;4.60;;;;;;;-5.97;63.64;95034.25;524160;28;836;-64
2024/01/31 00:38:50;;;;;;;6.15;4.03;;;;;;;-5.68;63.14;95083.78;524141;28;800;-64
2024/01/31 00:39:06;;;;;;;4.53;3.60;;;;;;;-5.71;63.33;95079.19;524019;28;795;-63
2024/01/31 00:39:26;;;;;;;5.75;3.75;;;;;;;-5.73;63.19;95082.31;524076;28;733;-63
2024/01/31 00:39:41;;;;;;;4.30;3.33;;;;;;;-5.83;63.49;95087.81;524097;28;970;-63
2024/01/31 00:39:57;;;;;;;3.78;2.95;;;;;;;-5.90;63.96;95083.34;524142;28;792;-64
2024/01/31 00:40:13;;;;;;;3.80;2.60;;;;;;;-5.96;63.31;95084.94;524020;28;764;-64
2024/01/31 00:40:28;;;;;;;4.07;2.80;;;;;;;-6.05;63.74;95081.97;524178;28;780;-64
2024/01/31 00:40:43;;;;;;;4.40;3.10;;;;;;;-6.10;63.89;95077.03;524124;28;903;-64
2024/01/31 00:40:59;;;;;;;4.75;3.42;;;;;;;-6.16;64.02;95086.72;524059;28;753;-63
2024/01/31 00:41:15;;;;;;;4.53;3.27;;;;;;;-6.17;63.95;95079.81;524095;28;777;-64
2024/01/31 00:41:31;;;;;;;4.45;2.90;;;;;;;-6.14;63.82;95087.09;524152;28;804;-64
2024/01/31 00:41:47;;;;;;;5.35;3.17;;;;;;;-6.14;63.94;95084.38;524019;28;856;-63
2024/01/31 00:42:02;;;;;;;5.47;3.80;;;;;;;-6.10;64.21;95084.34;524056;28;865;-63
2024/01/31 00:42:19;;;;;;;5.60;4.03;;;;;;;-6.10;64.33;95087.03;524113;28;888;-64
2024/01/31 00:42:34;;;;;;;4.80;3.97;;;;;;;-6.09;64.31;95078.59;524137;28;828;-64
2024/01/31 00:42:49;;;;;;;4.40;3.83;;;;;;;-6.07;64.33;95084.31;524082;28;768;-64
2024/01/31 00:43:05;;;;;;;4.13;3.73;;;;;;;-6.04;64.14;95078.13;524135;28;777;-64
2024/01/31 00:43:20;;;;;;;4.90;4.00;;;;;;;-6.04;63.84;95083.50;523969;28;1968;-64
2024/01/31 00:43:36;;;;;;;5.53;4.27;;;;;;;-6.12;64.46;95076.69;523806;28;2168;-64
2024/01/31 00:43:51;;;;;;;6.22;4.63;;;;;;;-6.12;64.04;95082.06;523977;28;740;-64
2024/01/31 00:44:07;;;;;;;5.90;4.43;;;;;;;-6.10;64.41;95078.97;523916;28;871;-64
2024/01/31 00:44:22;;;;;;;5.82;4.63;;;;;;;-6.08;64.19;95080.09;524016;28;859;-64
2024/01/31 00:44:38;;;;;;;6.47;5.03;;;;;;;-6.06;64.28;95069.69;523969;28;828;-64
2024/01/31 00:44:53;;;;;;;7.00;5.10;;;;;;;-6.03;64.21;95076.97;523913;28;880;-64
2024/01/31 00:45:09;;;;;;;7.82;5.65;;;;;;;-6.00;64.05;95078.84;523926;28;989;-64
2024/01/31 00:45:24;;;;;;;8.02;5.95;;;;;;;-5.97;63.98;95080.72;524014;28;788;-64
2024/01/31 00:45:40;;;;;;;7.73;6.03;;;;;;;-5.95;64.11;95081.09;524204;28;804;-64
2024/01/31 00:45:55;;;;;;;7.40;6.20;;;;;;;-5.95;64.33;95080.31;524091;28;903;-63
2024/01/31 00:46:11;;;;;;;8.10;6.43;;;;;;;-5.96;64.13;95084.94;524078;28;1007;-64
2024/01/31 00:46:26;;;;;;;9.18;6.53;;;;;;;-5.95;63.98;95075.69;524002;28;870;-63
2024/01/31 00:46:42;;;;;;;9.93;6.90;;;;;;;-5.95;64.09;95077.63;524033;28;975;-64
2024/01/31 00:46:58;;;;;;;10.63;7.05;;;;;;;-5.94;64.18;95077.25;524119;28;863;-63
2024/01/31 00:47:13;;;;;;;11.23;6.93;;;;;;;-5.94;64.10;95073.78;524007;28;914;-64
2024/01/31 00:47:29;;;;;;;11.63;7.03;;;;;;;-5.95;64.60;95080.31;524126;28;733;-63
2024/01/31 00:47:44;;;;;;;9.85;6.85;;;;;;;-5.94;64.29;95082.63;523929;28;796;-63
2024/01/31 00:47:59;;;;;;;8.33;6.87;;;;;;;-5.94;64.23;95074.56;523968;28;765;-64
2024/01/31 00:48:15;;;;;;;8.97;6.90;;;;;;;-5.92;64.35;95082.97;523902;28;947;-64
2024/01/31 00:48:32;;;;;;;9.47;6.40;;;;;;;-5.91;64.19;95081.78;524001;28;792;-64
2024/01/31 00:48:47;;;;;;;8.80;6.20;;;;;;;-5.91;64.34;95076.41;523956;28;824;-64
2024/01/31 00:49:05;;;;;;;8.40;6.03;;;;;;;-5.89;64.95;95076.03;523829;28;823;-63
2024/01/31 00:49:21;;;;;;;10.13;6.00;;;;;;;-5.88;64.74;95072.16;523922;28;958;-63
2024/01/31 00:49:37;;;;;;;10.43;6.28;;;;;;;-5.88;64.83;95069.47;523963;28;823;-64
2024/01/31 00:49:52;;;;;;;8.63;6.10;;;;;;;-5.87;64.56;95076.38;524105;28;824;-63
2024/01/31 00:50:08;;;;;;;6.53;5.40;;;;;;;-5.89;64.36;95079.47;524111;28;834;-64
2024/01/31 00:50:23;;;;;;;7.40;5.45;;;;;;;-5.91;64.39;95078.38;524073;28;827;-64
2024/01/31 00:50:39;;;;;;;8.55;5.50;;;;;;;-5.92;64.84;95082.97;524063;28;753;-64
2024/01/31 00:50:54;;;;;;;8.10;5.23;;;;;;;-5.92;64.45;95082.22;524118;28;777;-64
2024/01/31 00:51:13;;;;;;;7.17;5.30;;;;;;;-6.20;64.28;95043.78;524150;28;1107;-64
2024/01/31 00:51:28;;;;;;;7.60;5.50;;;;;;;-5.95;64.14;95080.31;524160;28;879;-64
2024/01/31 00:51:44;;;;;;;8.03;6.33;;;;;;;-5.95;64.63;95078.41;524165;28;811;-64
2024/01/31 00:52:00;;;;;;;9.07;7.05;;;;;;;-5.92;64.35;95082.22;524056;28;1210;-63
2024/01/31 00:52:17;;;;;;;10.30;7.33;;;;;;;-5.90;64.25;95082.56;524189;28;796;-64
2024/01/31 00:52:32;;;;;;;12.85;8.95;;;;;;;-5.88;64.10;95081.00;524115;28;799;-64
2024/01/31 00:52:48;;;;;;;15.77;10.53;;;;;;;-5.85;63.81;95080.19;524130;28;741;-64
2024/01/31 00:53:03;;;;;;;13.88;9.80;;;;;;;-5.83;64.27;95091.28;523973;28;844;-63
2024/01/31 00:53:19;;;;;;;12.57;8.82;;;;;;;-5.81;63.97;95080.88;522007;28;887;-64
2024/01/31 00:53:35;;;;;;;11.03;8.30;;;;;;;-5.79;63.81;95081.25;522028;28;799;-63
2024/01/31 00:53:50;;;;;;;11.68;8.65;;;;;;;-5.77;64.03;95076.22;522034;28;920;-64
2024/01/31 00:54:06;;;;;;;13.18;8.95;;;;;;;-5.75;64.20;95090.03;521970;28;812;-63
2024/01/31 00:54:21;;;;;;;14.20;9.33;;;;;;;-5.74;64.03;95083.47;522063;28;765;-64
2024/01/31 00:54:37;;;;;;;13.88;9.50;;;;;;;-5.72;63.58;95088.47;521939;28;785;-64
2024/01/31 00:54:52;;;;;;;12.93;9.10;;;;;;;-5.70;63.94;95080.75;521955;28;899;-63
2024/01/31 00:55:08;;;;;;;11.98;8.77;;;;;;;-5.75;63.74;95073.88;522067;28;793;-63
2024/01/31 00:55:23;;;;;;;11.02;8.70;;;;;;;-5.70;63.82;95081.50;522028;28;804;-64
2024/01/31 00:55:39;;;;;;;12.70;8.67;;;;;;;-5.69;64.07;95082.25;522036;28;848;-63
2024/01/31 00:55:54;;;;;;;14.70;9.00;;;;;;;-5.67;64.03;95082.59;522028;28;929;-63
2024/01/31 00:56:10;;;;;;;13.77;9.40;;;;;;;-5.67;63.92;95079.91;521983;28;911;-64
2024/01/31 00:56:25;;;;;;;11.95;9.82;;;;;;;-5.65;64.07;95085.69;522011;28;772;-64
2024/01/31 00:56:41;;;;;;;13.50;9.50;;;;;;;-5.64;63.79;95074.50;521993;28;812;-64
2024/01/31 00:56:56;;;;;;;12.07;7.88;;;;;;;-5.63;63.90;95077.97;521963;28;817;-64
2024/01/31 00:57:12;;;;;;;10.37;7.60;;;;;;;-5.65;63.99;95070.28;521968;28;753;-63
2024/01/31 00:57:27;;;;;;;12.13;8.17;;;;;;;-5.67;63.56;95078.00;521972;28;832;-64
2024/01/31 00:57:44;;;;;;;12.60;8.15;;;;;;;-5.63;64.01;95080.66;521962;28;812;-64
2024/01/31 00:58:00;;;;;;;11.25;7.90;;;;;;;-5.64;64.17;95079.13;522037;28;820;-63
2024/01/31 00:58:16;;;;;;;10.27;7.25;;;;;;;-5.64;63.62;95081.81;522027;28;880;-64
2024/01/31 00:58:34;;;;;;;9.30;6.63;;;;;;;-5.67;64.13;95078.00;522078;28;831;-64
2024/01/31 00:58:49;;;;;;;10.65;6.35;;;;;;;-5.71;63.62;95079.19;521956;28;793;-63
2024/01/31 00:59:05;;;;;;;11.27;6.63;;;;;;;-5.76;64.39;95085.06;521946;28;899;-64
2024/01/31 00:59:20;;;;;;;8.30;6.13;;;;;;;-5.79;64.23;95075.09;522049;28;874;-63
2024/01/31 00:59:36;;;;;;;9.93;6.40;;;;;;;-5.81;64.05;95075.50;521965;28;1058;-64
2024/01/31 00:59:51;;;;;;;10.02;6.78;;;;;;;-5.84;64.52;95075.56;522042;28;793;-64
2024/01/31 01:00:09;;;;;;;11.80;6.70;;;;;;;-5.84;64.52;95070.19;521947;28;1002;-64
2024/01/31 01:00:25;;;;;;;11.32;6.60;;;;;;;-5.83;64.68;95077.06;521897;28;886;-64
2024/01/31 01:00:41;;;;;;;9.43;6.85;;;;;;;-5.81;64.11;95074.75;521983;28;1551;-64
2024/01/31 01:00:56;;;;;;;15.63;7.60;;;;;;;-5.79;64.35;95080.47;522066;28;808;-64
2024/01/31 01:01:12;;;;;;;14.25;7.40;;;;;;;-5.77;64.13;95076.22;521893;28;864;-64
2024/01/31 01:01:28;;;;;;;8.97;7.10;;;;;;;-5.76;64.15;95071.59;522076;28;757;-64
2024/01/31 01:01:43;;;;;;;10.20;7.22;;;;;;;-5.75;64.12;95078.50;521907;28;923;-64
2024/01/31 01:01:58;;;;;;;11.93;7.30;;;;;;;-5.73;64.10;95081.53;521931;28;813;-64
2024/01/31 01:02:16;;;;;;;11.90;7.43;;;;;;;-5.95;64.32;95046.13;521904;28;928;-64
2024/01/31 01:02:31;;;;;;;10.30;7.72;;;;;;;-5.70;64.16;95083.44;521992;28;871;-63
2024/01/31 01:02:47;;;;;;;11.67;8.60;;;;;;;-5.69;63.69;95080.31;522035;28;907;-64
2024/01/31 01:03:02;;;;;;;13.00;9.05;;;;;;;-5.69;64.03;95083.03;521727;28;820;-64
2024/01/31 01:03:18;;;;;;;11.97;8.50;;;;;;;-5.68;63.71;95084.56;521786;28;1910;-64
2024/01/31 01:03:33;;;;;;;10.27;8.03;;;;;;;-5.67;64.10;95077.22;521824;28;827;-64
2024/01/31 01:03:48;;;;;;;10.93;8.33;;;;;;;-5.65;63.93;95081.03;521838;28;1141;-63
2024/01/31 01:04:04;;;;;;;12.90;9.00;;;;;;;-5.64;63.72;95079.13;525926;28;816;-64
2024/01/31 01:04:19;;;;;;;13.90;9.30;;;;;;;-5.64;63.25;95079.88;525869;28;1102;-64
2024/01/31 01:04:35;;;;;;;13.75;9.20;;;;;;;-5.62;63.73;95077.53;526021;28;808;-64
2024/01/31 01:04:52;;;;;;;13.60;9.03;;;;;;;-5.65;63.27;95077.59;524368;28;1251;-64
2024/01/31 01:05:08;;;;;;;13.55;8.98;;;;;;;-5.69;63.67;95084.94;523766;28;1042;-63
2024/01/31 01:05:24;;;;;;;13.02;8.55;;;;;;;-5.73;63.23;95085.00;523831;28;1579;-63
2024/01/31 01:05:39;;;;;;;14.00;9.03;;;;;;;-5.91;63.40;95048.78;521595;28;2307;-63
2024/01/31 01:05:55;;;;;;;14.02;9.73;;;;;;;-5.77;63.57;95073.53;521773;28;875;-64
2024/01/31 01:06:11;;;;;;;13.98;10.07;;;;;;;-5.79;63.61;95072.41;522532;28;1086;-64
2024/01/31 01:06:26;;;;;;;13.30;9.77;;;;;;;-5.80;63.60;95077.00;523954;28;804;-64
2024/01/31 01:06:42;;;;;;;14.82;9.75;;;;;;;-5.78;63.48;95076.63;523939;28;819;-64
2024/01/31 01:06:57;;;;;;;15.53;10.07;;;;;;;-5.76;63.66;95079.69;523863;28;773;-63
2024/01/31 01:07:12;;;;;;;12.40;9.65;;;;;;;-5.75;64.12;95076.56;523760;28;844;-64
2024/01/31 01:07:28;;;;;;;13.20;9.60;;;;;;;-5.76;63.70;95071.59;523961;28;757;-63
2024/01/31 01:07:45;;;;;;;15.07;9.77;;;;;;;-5.71;63.77;95077.28;524066;28;789;-63
2024/01/31 01:08:02;;;;;;;14.68;9.55;;;;;;;-5.73;63.83;95071.53;524077;28;859;-64
2024/01/31 01:08:19;;;;;;;14.02;9.68;;;;;;;-5.75;63.53;95073.13;524056;28;887;-63
2024/01/31 01:08:34;;;;;;;14.38;9.43;;;;;;;-5.74;63.58;95074.66;524002;28;816;-63
2024/01/31 01:08:50;;;;;;;14.63;9.70;;;;;;;-5.75;63.60;95070.41;524078;28;1094;-64
2024/01/31 01:09:05;;;;;;;14.40;9.83;;;;;;;-5.75;64.23;95065.03;524071;28;823;-64
2024/01/31 01:09:21;;;;;;;15.95;9.98;;;;;;;-5.76;64.28;95069.66;524107;28;826;-64
2024/01/31 01:09:36;;;;;;;16.08;10.07;;;;;;;-6.07;63.96;95029.78;524060;28;832;-64
2024/01/31 01:09:52;;;;;;;15.20;9.87;;;;;;;-5.80;64.16;95070.88;523987;28;1008;-65
2024/01/31 01:10:14;;;;;;;14.40;9.50;;;;;;;-5.83;63.88;95077.06;524041;28;879;-64
2024/01/31 01:10:29;;;;;;;16.33;9.70;;;;;;;-5.85;64.01;95072.13;524020;28;887;-64
2024/01/31 01:10:45;;;;;;;15.00;9.60;;;;;;;-5.88;64.06;95075.63;524074;28;859;-63
2024/01/31 01:11:00;;;;;;;12.93;9.00;;;;;;;-5.94;64.42;95077.25;524097;28;813;-64
2024/01/31 01:11:16;;;;;;;12.00;8.27;;;;;;;-5.97;64.70;95077.25;523791;28;792;-64
2024/01/31 01:11:31;;;;;;;14.00;8.45;;;;;;;-5.99;64.85;95074.22;523929;28;832;-64
2024/01/31 01:11:47;;;;;;;14.23;8.70;;;;;;;-6.01;64.57;95071.94;523948;28;784;-64
2024/01/31 01:12:03;;;;;;;11.55;7.93;;;;;;;-6.31;64.66;95028.94;523788;28;813;-64
2024/01/31 01:12:18;;;;;;;11.40;7.53;;;;;;;-6.07;64.90;95070.88;523939;28;820;-64
2024/01/31 01:12:34;;;;;;;12.03;7.63;;;;;;;-6.11;64.70;95070.16;521807;28;851;-64
2024/01/31 01:12:49;;;;;;;10.57;7.35;;;;;;;-6.13;65.00;95069.03;521762;28;1248;-64
2024/01/31 01:13:04;;;;;;;13.20;7.07;;;;;;;-6.18;65.09;95072.91;522233;28;839;-64
2024/01/31 01:13:20;;;;;;;12.75;6.63;;;;;;;-6.21;64.61;95069.09;523932;28;783;-64
2024/01/31 01:13:35;;;;;;;8.47;5.93;;;;;;;-6.25;64.83;95068.38;523900;28;868;-64
2024/01/31 01:13:51;;;;;;;8.03;5.70;;;;;;;-6.28;65.00;95068.44;523905;28;887;-63
2024/01/31 01:14:06;;;;;;;7.32;5.60;;;;;;;-6.25;65.12;95068.38;523823;28;792;-64
2024/01/31 01:14:22;;;;;;;8.53;5.87;;;;;;;-6.22;65.25;95075.66;523861;28;823;-64
2024/01/31 01:14:37;;;;;;;8.75;6.18;;;;;;;-6.37;64.76;95038.59;524086;28;769;-64
2024/01/31 01:14:53;;;;;;;8.63;6.03;;;;;;;-6.18;64.55;95060.25;523989;28;843;-64
2024/01/31 01:15:11;;;;;;;7.47;5.50;;;;;;;-6.19;64.72;95066.78;524094;28;853;-63